Time;durP1;ratioP1;P1;durP2;ratioP2;P2;SDS_P1;SDS_P2;PMS_P1;PMS_P2;Temp;Humidity;BMP_temperature;BMP_pressure;BME280_temperature;BME280_humidity;BME280_pressure;Samples;Min_cycle;Max_cycle;Signal;HPM_P1;HPM_P2
2022/01/23 00:00:44;;;;;;;25.37;14.67;;;3.80;99.90;;;;;;5035122;28;20208;-63
2022/01/23 00:03:18;;;;;;;17.67;11.70;;;3.80;99.90;;;;;;5033008;28;20232;-63
2022/01/23 00:05:52;;;;;;;20.80;14.20;;;3.80;99.90;;;;;;5034458;28;20170;-62
2022/01/23 00:08:21;;;;;;;20.57;12.43;;;3.80;99.90;;;;;;5034454;28;20161;-63
2022/01/23 00:10:47;;;;;;;19.50;11.83;;;3.80;99.90;;;;;;5034620;28;20484;-64
2022/01/23 00:18:40;;;;;;;23.37;14.13;;;3.80;99.90;;;;;;5039971;28;20164;-63
2022/01/23 00:21:06;;;;;;;16.90;11.77;;;3.90;99.90;;;;;;5041883;28;20598;-63
2022/01/23 00:30:18;;;;;;;19.40;12.03;;;3.90;99.90;;;;;;5035660;28;20250;-63
2022/01/23 00:31:46;;;;;;;19.33;11.97;;;4.10;99.90;;;;;;5035681;28;20211;-66
2022/01/23 00:34:11;;;;;;;18.40;11.53;;;4.00;99.90;;;;;;5036727;28;20361;-66
2022/01/23 00:36:37;;;;;;;18.47;11.03;;;4.10;99.90;;;;;;5034539;28;20237;-63
2022/01/23 00:39:03;;;;;;;16.90;11.13;;;4.00;99.90;;;;;;5037257;28;20550;-62
2022/01/23 00:41:29;;;;;;;16.23;11.43;;;4.10;99.90;;;;;;5036072;28;20227;-63
2022/01/23 00:43:55;;;;;;;19.03;10.20;;;4.00;99.90;;;;;;5034686;28;20249;-64
2022/01/23 00:46:29;;;;;;;17.60;11.17;;;4.10;99.90;;;;;;5033839;28;20161;-63
2022/01/23 00:51:26;;;;;;;17.13;10.63;;;4.00;99.90;;;;;;5034202;28;20163;-63
2022/01/23 00:53:52;;;;;;;18.17;10.03;;;4.10;99.90;;;;;;5033614;28;20593;-62
2022/01/23 00:56:18;;;;;;;17.27;10.70;;;4.10;99.90;;;;;;5034425;28;20174;-62
2022/01/23 00:58:44;;;;;;;20.00;11.37;;;4.10;99.90;;;;;;5033776;28;20636;-63
2022/01/23 01:01:11;;;;;;;15.10;9.97;;;4.20;99.90;;;;;;5034085;28;20292;-62
2022/01/23 01:03:36;;;;;;;18.60;10.53;;;4.20;99.90;;;;;;5033760;28;20161;-64
2022/01/23 01:06:02;;;;;;;16.87;10.63;;;4.40;99.90;;;;;;5034125;28;20168;-63
2022/01/23 01:08:28;;;;;;;11.77;8.17;;;4.40;99.90;;;;;;5033513;28;20177;-63
2022/01/23 01:13:28;;;;;;;13.13;9.27;;;4.70;99.90;;;;;;5034094;28;20199;-63
2022/01/23 01:32:23;;;;;;;7.17;5.67;;;5.10;99.90;;;;;;5044807;28;20243;-63
2022/01/23 01:35:01;;;;;;;8.70;6.37;;;5.20;99.90;;;;;;5036662;28;20189;-63
2022/01/23 01:37:27;;;;;;;10.60;5.70;;;5.20;99.90;;;;;;5035628;28;20266;-63
2022/01/23 01:39:52;;;;;;;8.20;5.80;;;5.20;99.90;;;;;;5036066;28;20161;-64
2022/01/23 01:42:18;;;;;;;7.53;5.30;;;5.10;99.90;;;;;;5038067;28;20202;-62
2022/01/23 01:44:44;;;;;;;9.73;5.93;;;5.20;99.90;;;;;;5055736;28;20188;-63
2022/01/23 01:47:09;;;;;;;10.40;6.17;;;5.20;99.90;;;;;;5058838;28;20272;-63
2022/01/23 01:49:35;;;;;;;11.10;6.63;;;5.20;99.90;;;;;;5055734;28;20187;-63
2022/01/23 01:52:02;;;;;;;9.40;6.53;;;5.20;99.90;;;;;;5056385;28;20553;-63
2022/01/23 01:54:31;;;;;;;8.40;6.07;;;5.10;99.90;;;;;;5051566;28;20206;-63
2022/01/23 01:57:08;;;;;;;10.10;6.57;;;5.10;99.90;;;;;;5039698;28;20199;-64
2022/01/23 02:10:06;;;;;;;8.93;5.97;;;5.10;99.90;;;;;;5057685;28;20167;-62
2022/01/23 02:18:00;;;;;;;9.67;6.07;;;5.20;99.90;;;;;;5058126;28;20519;-63
2022/01/23 02:55:43;;;;;;;6.87;4.83;;;5.20;99.90;;;;;;5072287;28;20629;-62
2022/01/23 02:58:12;;;;;;;8.97;5.07;;;5.20;99.90;;;;;;5070867;28;20162;-65
2022/01/23 03:00:48;;;;;;;9.10;5.30;;;5.20;99.90;;;;;;5060158;28;20257;-63
2022/01/23 03:03:22;;;;;;;7.00;4.67;;;5.20;99.90;;;;;;5056939;28;20176;-62
2022/01/23 03:06:12;;;;;;;10.27;4.97;;;5.20;99.90;;;;;;5056526;28;20171;-63
2022/01/23 03:11:51;;;;;;;6.77;4.57;;;5.20;99.90;;;;;;5040446;28;20252;-63
2022/01/23 03:14:25;;;;;;;8.30;4.83;;;5.20;99.90;;;;;;5055830;28;20187;-63
2022/01/23 03:25:28;;;;;;;7.17;4.47;;;5.20;99.90;;;;;;5041484;28;20290;-64
2022/01/23 03:30:24;;;;;;;7.13;5.10;;;5.20;99.90;;;;;;5036372;28;20168;-63
2022/01/23 03:32:51;;;;;;;7.53;5.43;;;5.20;99.90;;;;;;5036087;28;20585;-63
2022/01/23 03:35:18;;;;;;;7.80;5.20;;;5.20;99.90;;;;;;5035981;28;20718;-62
2022/01/23 03:37:45;;;;;;;6.70;4.70;;;5.20;99.90;;;;;;5034929;28;20270;-64
2022/01/23 03:40:11;;;;;;;6.13;4.67;;;5.20;99.90;;;;;;5036083;28;20168;-63
2022/01/23 03:42:39;;;;;;;6.50;4.60;;;5.20;99.90;;;;;;5035598;28;20247;-63
2022/01/23 03:48:01;;;;;;;8.87;4.97;;;5.20;99.90;;;;;;5036211;28;20156;-65
2022/01/23 03:50:26;;;;;;;5.47;4.37;;;5.20;99.90;;;;;;5036029;28;20206;-63
2022/01/23 03:52:52;;;;;;;7.83;5.30;;;5.20;99.90;;;;;;5036145;28;20167;-63
2022/01/23 03:55:18;;;;;;;10.57;5.83;;;5.20;99.90;;;;;;5035503;28;20214;-63
2022/01/23 03:57:43;;;;;;;6.23;4.40;;;5.20;99.90;;;;;;5035338;28;20162;-63
2022/01/23 04:00:10;;;;;;;8.97;5.20;;;5.20;99.90;;;;;;5030940;28;20189;-62
2022/01/23 04:02:35;;;;;;;9.13;6.17;;;5.20;99.90;;;;;;5032984;28;20219;-63
2022/01/23 04:05:01;;;;;;;9.07;5.37;;;5.20;99.90;;;;;;5034508;28;20178;-63
2022/01/23 04:07:28;;;;;;;8.87;5.47;;;5.20;99.90;;;;;;5046376;28;20203;-63
2022/01/23 04:09:54;;;;;;;7.53;5.40;;;5.20;99.90;;;;;;5055132;28;20162;-63
2022/01/23 04:13:13;;;;;;;6.00;4.50;;;5.20;99.90;;;;;;5054095;28;20173;-63
2022/01/23 04:33:58;;;;;;;7.27;4.60;;;5.20;99.90;;;;;;5039018;28;20237;-63
2022/01/23 05:01:31;;;;;;;10.17;5.37;;;5.10;99.90;;;;;;5029400;28;20747;-63
2022/01/23 05:06:38;;;;;;;7.73;5.00;;;5.00;99.90;;;;;;5031500;28;20183;-63
2022/01/23 05:09:06;;;;;;;8.67;5.20;;;5.10;99.90;;;;;;5031116;28;20263;-64
2022/01/23 05:11:32;;;;;;;7.63;4.90;;;5.10;99.90;;;;;;5034070;28;20506;-64
2022/01/23 05:14:01;;;;;;;7.57;4.83;;;5.10;99.90;;;;;;5033122;28;20191;-63
2022/01/23 05:16:26;;;;;;;7.10;4.90;;;5.20;99.90;;;;;;5035290;28;20191;-63
2022/01/23 05:18:53;;;;;;;10.90;5.30;;;5.10;99.90;;;;;;5035951;28;20523;-63
2022/01/23 05:24:05;;;;;;;8.87;4.80;;;5.10;99.90;;;;;;5035041;28;20196;-63
2022/01/23 05:26:31;;;;;;;10.30;5.53;;;5.10;99.90;;;;;;5036823;28;20251;-63
2022/01/23 05:28:57;;;;;;;7.80;4.73;;;5.10;99.90;;;;;;5041145;28;20376;-64
2022/01/23 05:31:23;;;;;;;7.20;4.93;;;5.00;99.90;;;;;;5035880;28;20189;-64
2022/01/23 05:33:48;;;;;;;8.03;5.40;;;5.00;99.90;;;;;;5033586;28;20187;-63
2022/01/23 05:36:14;;;;;;;9.13;5.87;;;5.00;99.90;;;;;;5033410;28;20540;-64
2022/01/23 05:38:39;;;;;;;7.00;5.03;;;5.00;99.90;;;;;;5028843;28;20180;-63
2022/01/23 05:41:05;;;;;;;8.70;4.97;;;5.00;99.90;;;;;;5034506;28;20212;-62
2022/01/23 05:43:31;;;;;;;7.30;4.53;;;5.00;99.90;;;;;;5031352;28;20322;-63
2022/01/23 05:45:56;;;;;;;7.07;5.27;;;5.00;99.90;;;;;;5035966;28;20430;-62
2022/01/23 05:48:22;;;;;;;7.17;4.80;;;5.10;99.90;;;;;;5040261;28;20182;-63
2022/01/23 05:50:48;;;;;;;9.83;5.90;;;5.10;99.90;;;;;;5046768;28;21539;-62
2022/01/23 05:53:14;;;;;;;7.20;4.80;;;5.10;99.90;;;;;;5038251;28;20191;-62
2022/01/23 05:55:39;;;;;;;12.97;5.50;;;4.90;99.90;;;;;;5042801;28;20184;-63
2022/01/23 05:58:05;;;;;;;7.30;4.93;;;5.10;99.90;;;;;;5031335;28;20183;-63
2022/01/23 06:00:31;;;;;;;6.60;4.23;;;5.10;99.90;;;;;;5034519;28;20191;-62
2022/01/23 06:02:56;;;;;;;7.80;5.00;;;5.00;99.90;;;;;;5038493;28;20195;-64
2022/01/23 06:05:22;;;;;;;7.07;4.83;;;5.00;99.90;;;;;;5036801;28;20176;-63
2022/01/23 06:07:50;;;;;;;8.37;5.30;;;5.00;99.90;;;;;;5037931;28;20189;-64
2022/01/23 06:10:22;;;;;;;8.00;5.13;;;5.10;99.90;;;;;;5042416;28;20191;-67
2022/01/23 06:12:49;;;;;;;8.30;5.10;;;5.10;99.90;;;;;;5038108;28;20180;-62
2022/01/23 06:15:15;;;;;;;7.53;5.00;;;5.10;99.90;;;;;;5050897;28;20183;-63
2022/01/23 06:17:42;;;;;;;7.53;4.93;;;5.10;99.90;;;;;;5035330;28;20242;-63
2022/01/23 06:20:10;;;;;;;10.63;4.93;;;5.00;99.90;;;;;;5035591;28;20184;-63
2022/01/23 06:22:35;;;;;;;7.27;4.37;;;5.00;99.90;;;;;;5042950;28;20287;-64
2022/01/23 06:25:04;;;;;;;8.50;4.50;;;5.10;99.90;;;;;;5044163;28;20267;-63
2022/01/23 06:27:30;;;;;;;7.00;4.37;;;5.00;99.90;;;;;;5046402;28;20193;-62
2022/01/23 06:29:55;;;;;;;7.00;4.30;;;5.10;99.90;;;;;;5031717;28;20521;-63
2022/01/23 06:32:21;;;;;;;6.87;4.47;;;5.10;99.90;;;;;;5050043;28;20292;-62
2022/01/23 06:34:47;;;;;;;6.67;4.23;;;5.10;99.90;;;;;;5034398;28;20207;-62
2022/01/23 06:37:13;;;;;;;9.07;4.70;;;5.10;99.90;;;;;;5041479;28;20687;-63
2022/01/23 06:39:39;;;;;;;7.00;4.40;;;5.00;99.90;;;;;;5050817;28;20633;-63
2022/01/23 06:42:05;;;;;;;8.10;4.23;;;5.00;99.90;;;;;;5053383;28;20223;-64
2022/01/23 06:44:30;;;;;;;7.57;4.27;;;5.00;99.90;;;;;;5040764;28;20529;-64
2022/01/23 06:46:56;;;;;;;7.00;4.47;;;5.00;99.90;;;;;;5033991;28;20270;-63
2022/01/23 06:49:22;;;;;;;7.40;4.10;;;5.00;99.90;;;;;;5031649;28;20211;-63
2022/01/23 06:51:49;;;;;;;6.77;4.80;;;5.00;99.90;;;;;;5045711;28;20213;-62
2022/01/23 06:54:15;;;;;;;8.77;4.70;;;5.00;99.90;;;;;;5035851;28;20647;-63
2022/01/23 06:56:41;;;;;;;6.87;4.50;;;5.00;99.90;;;;;;5031830;28;20629;-63
2022/01/23 06:59:07;;;;;;;10.17;5.73;;;5.00;99.90;;;;;;5038295;28;20190;-63
2022/01/23 07:01:32;;;;;;;8.33;5.30;;;5.00;99.90;;;;;;5042106;28;20292;-62
2022/01/23 07:03:58;;;;;;;7.53;4.63;;;5.10;99.90;;;;;;5035581;28;20186;-63
2022/01/23 07:06:24;;;;;;;6.73;4.43;;;5.00;99.90;;;;;;5040375;28;20206;-63
2022/01/23 07:08:49;;;;;;;7.60;4.53;;;5.00;99.90;;;;;;5042950;28;20210;-62
2022/01/23 07:11:15;;;;;;;7.43;4.73;;;5.10;99.90;;;;;;5046339;28;20192;-62
2022/01/23 07:13:41;;;;;;;6.33;4.37;;;5.00;99.90;;;;;;5041218;28;20179;-62
2022/01/23 07:16:06;;;;;;;5.97;3.80;;;5.00;99.90;;;;;;5043671;28;20511;-66
2022/01/23 07:18:33;;;;;;;6.33;4.47;;;5.00;99.90;;;;;;5052173;28;20227;-67
2022/01/23 07:20:58;;;;;;;9.17;5.10;;;5.10;99.90;;;;;;5059270;28;20251;-62
2022/01/23 07:23:24;;;;;;;7.43;4.77;;;5.00;99.90;;;;;;5036977;28;20229;-61
2022/01/23 07:25:50;;;;;;;5.17;4.20;;;4.90;99.90;;;;;;5041371;28;20218;-64
2022/01/23 07:28:19;;;;;;;7.63;4.17;;;4.90;99.90;;;;;;5052863;28;20187;-63
2022/01/23 07:33:14;;;;;;;7.53;5.03;;;5.00;99.90;;;;;;5056270;28;20214;-62
2022/01/23 07:35:39;;;;;;;10.63;4.37;;;5.00;99.90;;;;;;5036853;28;20671;-62
2022/01/23 07:38:05;;;;;;;7.10;4.90;;;5.00;99.90;;;;;;5042034;28;20188;-63
2022/01/23 07:40:31;;;;;;;8.20;4.83;;;5.00;99.90;;;;;;5040636;28;20183;-63
2022/01/23 07:42:57;;;;;;;5.63;4.30;;;5.00;99.90;;;;;;5037287;28;20196;-64
2022/01/23 07:45:22;;;;;;;6.63;4.40;;;5.00;99.90;;;;;;5033243;28;20187;-65
2022/01/23 07:47:48;;;;;;;6.37;4.03;;;5.00;99.90;;;;;;5043156;28;20179;-65
2022/01/23 07:50:14;;;;;;;8.70;4.97;;;5.00;99.90;;;;;;5048397;28;20181;-63
2022/01/23 07:52:40;;;;;;;11.67;6.10;;;5.10;99.90;;;;;;5037803;28;20181;-63
2022/01/23 07:55:11;;;;;;;9.63;5.43;;;5.00;99.90;;;;;;5032202;28;20185;-70
2022/01/23 07:57:38;;;;;;;7.47;4.63;;;5.10;99.90;;;;;;5034810;28;20227;-64
2022/01/23 08:00:06;;;;;;;8.43;5.63;;;5.10;99.90;;;;;;5032005;28;20180;-63
2022/01/23 08:02:31;;;;;;;9.83;6.17;;;5.10;99.90;;;;;;5032619;28;20223;-64
2022/01/23 08:04:57;;;;;;;8.37;4.93;;;5.20;99.90;;;;;;5032133;28;20203;-64
2022/01/23 08:09:56;;;;;;;8.63;5.77;;;5.30;99.90;;;;;;5037462;28;20184;-63
2022/01/23 08:12:43;;;;;;;8.33;5.80;;;5.10;99.90;;;;;;5032425;28;20619;-63
2022/01/23 08:15:09;;;;;;;8.93;5.63;;;5.20;99.90;;;;;;5040118;28;20280;-63
2022/01/23 08:17:35;;;;;;;13.27;6.30;;;5.20;99.90;;;;;;5047809;28;20180;-63
2022/01/23 08:20:02;;;;;;;8.77;5.83;;;5.20;99.90;;;;;;5037983;28;20523;-64
2022/01/23 08:22:30;;;;;;;8.17;5.20;;;5.30;99.90;;;;;;5046498;28;20206;-62
2022/01/23 08:24:56;;;;;;;11.00;6.00;;;5.30;99.90;;;;;;5053027;28;20179;-63
2022/01/23 08:27:26;;;;;;;10.07;6.30;;;5.30;99.90;;;;;;5034300;28;20185;-63
2022/01/23 08:29:52;;;;;;;8.80;5.80;;;5.30;99.90;;;;;;5037156;28;20172;-62
2022/01/23 08:32:17;;;;;;;10.07;5.97;;;5.30;99.90;;;;;;5035529;28;20577;-65
2022/01/23 08:34:43;;;;;;;8.70;6.30;;;5.30;99.90;;;;;;5027464;28;20207;-63
2022/01/23 08:37:09;;;;;;;9.43;6.17;;;5.40;99.90;;;;;;5032775;28;20706;-64
2022/01/23 08:39:37;;;;;;;10.50;5.80;;;5.30;99.90;;;;;;5034766;28;20180;-63
2022/01/23 08:42:08;;;;;;;9.77;5.90;;;5.30;99.90;;;;;;5033986;28;20247;-63
2022/01/23 08:44:34;;;;;;;11.63;7.33;;;5.30;99.90;;;;;;5030248;28;20183;-62
2022/01/23 08:47:00;;;;;;;8.37;6.17;;;5.40;99.90;;;;;;5037873;28;20190;-63
2022/01/23 08:49:28;;;;;;;11.40;6.40;;;5.40;99.90;;;;;;5034581;28;20229;-63
2022/01/23 08:51:55;;;;;;;12.07;7.00;;;5.40;99.90;;;;;;5031406;28;20181;-62
2022/01/23 08:54:22;;;;;;;10.90;6.50;;;5.40;99.90;;;;;;5045330;28;20186;-63
2022/01/23 08:56:47;;;;;;;9.97;6.43;;;5.30;99.90;;;;;;5045770;28;20340;-63
2022/01/23 08:59:13;;;;;;;8.40;5.50;;;5.70;99.90;;;;;;5035937;28;20564;-63
2022/01/23 09:01:39;;;;;;;11.10;6.20;;;5.50;99.90;;;;;;5032499;28;20211;-64
2022/01/23 09:04:06;;;;;;;10.10;5.93;;;5.40;99.90;;;;;;5033190;28;20639;-63
2022/01/23 09:06:32;;;;;;;8.63;5.43;;;5.40;99.90;;;;;;5047697;28;20174;-65
2022/01/23 09:09:00;;;;;;;7.73;4.97;;;5.40;99.90;;;;;;5043425;28;21605;-64
2022/01/23 09:11:38;;;;;;;8.30;5.63;;;5.40;99.90;;;;;;5046153;28;20184;-63
2022/01/23 09:16:31;;;;;;;8.77;5.73;;;5.50;99.90;;;;;;5053406;28;20185;-74
2022/01/23 09:18:57;;;;;;;11.67;5.93;;;5.50;99.90;;;;;;5037793;28;20655;-66
2022/01/23 09:21:23;;;;;;;8.70;4.87;;;5.50;99.90;;;;;;5032984;28;20206;-63
2022/01/23 09:23:49;;;;;;;7.67;4.40;;;5.50;99.90;;;;;;5037822;28;20210;-63
2022/01/23 09:26:17;;;;;;;10.00;5.87;;;5.50;99.90;;;;;;5037142;28;20204;-64
2022/01/23 09:28:45;;;;;;;10.23;5.60;;;5.40;99.90;;;;;;5040878;28;20185;-65
2022/01/23 09:31:13;;;;;;;9.97;5.50;;;5.50;99.90;;;;;;5034819;28;20193;-63
2022/01/23 09:33:39;;;;;;;8.43;4.60;;;5.50;99.90;;;;;;5038211;28;20188;-63
2022/01/23 09:36:04;;;;;;;8.57;5.23;;;5.50;99.90;;;;;;5034214;28;20229;-63
2022/01/23 09:38:30;;;;;;;9.23;5.40;;;5.50;99.90;;;;;;5037349;28;20281;-63
2022/01/23 09:40:58;;;;;;;7.93;5.10;;;5.50;99.90;;;;;;5050011;28;20230;-63
2022/01/23 09:43:25;;;;;;;8.00;4.67;;;5.50;99.90;;;;;;5049876;28;20178;-63
2022/01/23 09:45:54;;;;;;;11.90;5.40;;;5.50;99.90;;;;;;5039613;28;20177;-64
2022/01/23 09:48:21;;;;;;;7.67;5.00;;;5.50;99.90;;;;;;5028009;28;20650;-64
2022/01/23 09:50:49;;;;;;;9.73;6.23;;;5.60;99.90;;;;;;5033573;28;20232;-64
2022/01/23 09:53:16;;;;;;;6.27;4.43;;;5.50;99.90;;;;;;5033981;28;20586;-63
2022/01/23 09:55:45;;;;;;;7.77;5.10;;;5.60;99.90;;;;;;5033784;28;20168;-64
2022/01/23 09:58:14;;;;;;;8.40;5.30;;;5.60;99.90;;;;;;5034133;28;20165;-64
2022/01/23 10:00:40;;;;;;;13.90;5.30;;;5.60;99.90;;;;;;5033952;28;20169;-63
2022/01/23 10:03:07;;;;;;;6.60;4.90;;;5.60;99.90;;;;;;5034291;28;20168;-63
2022/01/23 10:05:33;;;;;;;6.47;4.57;;;5.60;99.90;;;;;;5037464;28;20163;-64
2022/01/23 10:07:59;;;;;;;6.70;3.97;;;5.60;99.90;;;;;;5034890;28;20181;-63
2022/01/23 10:10:31;;;;;;;7.40;3.87;;;5.60;99.90;;;;;;5040894;28;20520;-63
2022/01/23 10:12:59;;;;;;;8.20;4.57;;;5.60;99.90;;;;;;5039621;28;20214;-63
2022/01/23 10:15:29;;;;;;;7.80;5.20;;;5.70;99.90;;;;;;5041824;28;20191;-65
2022/01/23 10:17:55;;;;;;;10.30;5.13;;;5.70;99.90;;;;;;5036639;28;20154;-63
2022/01/23 10:20:22;;;;;;;7.13;4.03;;;5.60;99.90;;;;;;5034501;28;20172;-62
2022/01/23 10:22:51;;;;;;;6.77;3.97;;;5.50;99.90;;;;;;5042160;28;20231;-63
2022/01/23 10:25:20;;;;;;;7.77;4.83;;;5.60;99.90;;;;;;5033783;28;20161;-64
2022/01/23 10:28:14;;;;;;;5.73;4.03;;;5.60;99.90;;;;;;5033737;28;20160;-63
2022/01/23 10:30:49;;;;;;;5.93;4.07;;;5.60;99.90;;;;;;5037150;28;20170;-62
2022/01/23 10:33:21;;;;;;;6.17;4.07;;;5.70;99.90;;;;;;5038399;28;20163;-64
2022/01/23 10:36:04;;;;;;;6.27;4.13;;;5.70;99.90;;;;;;5034142;28;20559;-63
2022/01/23 10:38:33;;;;;;;7.90;4.67;;;5.70;99.90;;;;;;5042050;28;20215;-64
2022/01/23 10:41:12;;;;;;;6.73;4.30;;;5.80;99.90;;;;;;5058140;28;20290;-63
2022/01/23 10:46:49;;;;;;;5.27;3.47;;;6.00;99.90;;;;;;5060092;28;20166;-64
2022/01/23 10:49:14;;;;;;;6.87;4.20;;;6.00;99.90;;;;;;5063269;28;20547;-64
2022/01/23 10:51:40;;;;;;;6.57;4.17;;;6.00;99.90;;;;;;5061577;28;20187;-65
2022/01/23 10:54:14;;;;;;;6.70;4.37;;;6.00;99.90;;;;;;5057408;28;20175;-64
2022/01/23 10:56:59;;;;;;;6.93;4.57;;;6.10;99.90;;;;;;5056890;28;20172;-63
2022/01/23 11:02:25;;;;;;;4.30;3.50;;;5.90;99.90;;;;;;5036976;28;20658;-63
2022/01/23 11:04:55;;;;;;;7.53;4.17;;;6.00;99.90;;;;;;5034513;28;20535;-68
2022/01/23 11:07:22;;;;;;;5.30;3.93;;;5.90;99.90;;;;;;5035860;28;20628;-63
2022/01/23 11:09:54;;;;;;;6.03;4.07;;;5.90;99.90;;;;;;5032921;28;20520;-64
2022/01/23 11:12:43;;;;;;;5.43;4.03;;;6.00;99.90;;;;;;5032946;28;20563;-64
2022/01/23 11:17:59;;;;;;;5.93;3.73;;;6.00;99.90;;;;;;5032880;28;20194;-63
2022/01/23 11:20:49;;;;;;;6.87;4.50;;;5.90;99.90;;;;;;5035898;28;20161;-63
2022/01/23 11:23:30;;;;;;;6.90;4.50;;;5.90;99.90;;;;;;5032087;28;20200;-64
2022/01/23 11:25:56;;;;;;;7.87;4.50;;;5.80;99.90;;;;;;5038292;28;20183;-64
2022/01/23 11:28:36;;;;;;;5.30;4.00;;;5.90;99.90;;;;;;5035607;28;20165;-63
2022/01/23 11:31:05;;;;;;;7.70;4.80;;;5.90;99.90;;;;;;5035549;28;20213;-63
2022/01/23 11:33:31;;;;;;;6.73;4.10;;;5.80;99.90;;;;;;5035095;28;20482;-63
2022/01/23 11:35:57;;;;;;;6.13;3.87;;;5.80;99.90;;;;;;5034871;28;20223;-62
2022/01/23 11:38:24;;;;;;;5.00;3.43;;;5.80;99.90;;;;;;5035264;28;20191;-65
2022/01/23 11:54:51;;;;;;;5.77;4.30;;;6.00;99.90;;;;;;5035679;28;20179;-65
2022/01/23 11:57:41;;;;;;;5.10;3.83;;;6.10;99.90;;;;;;5038472;28;20157;-64
2022/01/23 12:00:23;;;;;;;5.80;4.10;;;6.10;99.90;;;;;;5069136;28;20176;-63
2022/01/23 12:03:17;;;;;;;6.83;4.53;;;6.20;99.90;;;;;;5068319;28;20724;-63
2022/01/23 12:06:13;;;;;;;5.07;3.77;;;6.20;99.90;;;;;;5035853;28;20200;-64
2022/01/23 12:08:45;;;;;;;5.37;3.87;;;6.20;99.90;;;;;;5035239;28;20174;-64
2022/01/23 12:19:20;;;;;;;6.43;4.20;;;6.40;99.90;;;;;;5067023;28;20205;-64
2022/01/23 12:21:49;;;;;;;5.67;3.40;;;6.30;99.90;;;;;;5035574;28;20196;-64
2022/01/23 12:24:16;;;;;;;4.63;3.23;;;6.30;99.90;;;;;;5031007;28;20563;-63
2022/01/23 12:26:42;;;;;;;5.93;3.77;;;6.40;99.90;;;;;;5035103;28;20161;-63
2022/01/23 12:29:18;;;;;;;6.07;3.57;;;6.40;99.90;;;;;;5035109;28;20179;-63
2022/01/23 12:31:45;;;;;;;5.47;3.53;;;6.30;99.90;;;;;;5042936;28;20531;-63
2022/01/23 12:34:12;;;;;;;4.63;3.40;;;6.30;99.90;;;;;;5054316;28;20595;-64
2022/01/23 12:36:40;;;;;;;5.03;3.30;;;6.20;99.90;;;;;;5054518;28;20226;-63
2022/01/23 12:39:11;;;;;;;5.00;3.53;;;6.20;99.90;;;;;;5054655;28;20482;-64
2022/01/23 12:41:53;;;;;;;5.57;3.00;;;6.30;99.90;;;;;;5055246;28;20192;-64
2022/01/23 12:44:25;;;;;;;5.03;3.17;;;6.20;99.90;;;;;;5050678;28;20180;-63
2022/01/23 12:47:02;;;;;;;4.87;3.23;;;6.20;99.90;;;;;;5054115;28;20517;-62
2022/01/23 12:49:35;;;;;;;5.23;3.53;;;6.20;99.90;;;;;;5054540;28;20166;-62
2022/01/23 12:52:09;;;;;;;5.80;3.47;;;6.40;99.90;;;;;;5054769;28;20240;-63
2022/01/23 12:54:47;;;;;;;5.10;3.40;;;6.50;99.90;;;;;;5054306;28;20169;-63
2022/01/23 12:57:38;;;;;;;5.07;3.43;;;6.60;99.90;;;;;;5054639;28;20650;-65
2022/01/23 13:00:15;;;;;;;4.77;3.40;;;6.50;99.90;;;;;;5055537;28;20222;-63
2022/01/23 13:02:46;;;;;;;4.73;3.53;;;6.50;99.90;;;;;;5036972;28;20505;-62
2022/01/23 13:05:14;;;;;;;5.97;4.13;;;6.40;99.90;;;;;;5041889;28;20183;-64
2022/01/23 13:29:54;;;;;;;6.40;3.93;;;6.40;99.90;;;;;;5033497;28;20614;-64
2022/01/23 13:33:01;;;;;;;3.97;3.27;;;6.30;99.90;;;;;;5029108;28;20551;-64
2022/01/23 13:35:06;;;;;;;5.63;3.20;;;6.40;99.90;;;;;;5030097;28;20213;-73
2022/01/23 13:37:36;;;;;;;8.73;3.50;;;7.50;99.90;;;;;;5033267;28;20263;-74
2022/01/23 13:40:08;;;;;;;5.17;3.50;;;7.60;99.90;;;;;;5027761;28;20225;-63
2022/01/23 13:42:56;;;;;;;7.23;3.27;;;7.10;99.90;;;;;;5026207;28;20207;-64
2022/01/23 13:54:17;;;;;;;5.90;3.27;;;6.50;99.90;;;;;;5033078;28;20223;-65
2022/01/23 14:02:38;;;;;;;4.10;3.17;;;6.40;99.90;;;;;;5031774;28;20215;-64
2022/01/23 14:05:13;;;;;;;4.37;3.50;;;6.40;99.90;;;;;;5037352;28;20254;-64
2022/01/23 14:07:41;;;;;;;4.73;2.73;;;6.30;99.90;;;;;;5033197;28;20199;-63
2022/01/23 14:10:21;;;;;;;3.57;2.73;;;6.20;99.90;;;;;;5041226;28;20180;-64
2022/01/23 14:12:49;;;;;;;4.70;2.70;;;6.20;99.90;;;;;;5034381;28;20185;-64
2022/01/23 14:15:19;;;;;;;4.77;3.43;;;6.10;99.90;;;;;;5051923;28;20221;-64
2022/01/23 14:18:07;;;;;;;5.33;3.30;;;6.20;99.90;;;;;;5049303;28;20174;-64
2022/01/23 14:20:41;;;;;;;13.63;4.70;;;6.20;99.90;;;;;;5040874;28;20221;-64
2022/01/23 14:23:13;;;;;;;4.50;2.67;;;6.10;99.90;;;;;;5037926;28;20285;-65
2022/01/23 14:25:57;;;;;;;5.33;3.30;;;6.10;99.90;;;;;;5051014;28;20182;-64
2022/01/23 14:28:28;;;;;;;4.67;3.53;;;6.20;99.90;;;;;;5040798;28;20184;-64
2022/01/23 14:30:58;;;;;;;3.90;3.20;;;6.10;99.90;;;;;;5038571;28;20608;-64
2022/01/23 14:33:30;;;;;;;3.07;2.77;;;6.10;99.90;;;;;;5047041;28;20177;-65
2022/01/23 14:35:56;;;;;;;7.20;3.50;;;6.20;99.90;;;;;;5038270;28;20711;-64
2022/01/23 14:38:25;;;;;;;5.00;3.67;;;6.10;99.90;;;;;;5041393;28;20187;-64
2022/01/23 14:40:52;;;;;;;5.30;3.53;;;6.20;99.90;;;;;;5054519;28;20191;-64
2022/01/23 14:43:21;;;;;;;5.63;3.47;;;6.10;99.90;;;;;;5045504;28;20190;-64
2022/01/23 14:45:50;;;;;;;6.97;3.50;;;6.00;99.90;;;;;;5042410;28;20588;-64
2022/01/23 14:48:17;;;;;;;6.27;4.30;;;6.00;99.90;;;;;;5045538;28;20187;-63
2022/01/23 14:50:46;;;;;;;7.73;4.67;;;6.10;99.90;;;;;;5040311;28;20258;-63
2022/01/23 14:53:16;;;;;;;8.77;4.93;;;6.10;99.90;;;;;;5047248;28;20233;-64
2022/01/23 14:55:54;;;;;;;6.43;4.60;;;6.10;99.90;;;;;;5052055;28;20222;-64
2022/01/23 14:58:22;;;;;;;6.23;3.70;;;6.10;99.90;;;;;;5037636;28;20309;-63
2022/01/23 15:00:52;;;;;;;4.40;3.17;;;6.20;99.90;;;;;;5037093;28;20189;-64
2022/01/23 15:03:19;;;;;;;5.23;3.20;;;6.10;99.90;;;;;;5044265;28;20574;-63
2022/01/23 15:05:45;;;;;;;6.50;3.83;;;6.10;99.90;;;;;;5037557;28;20657;-63
2022/01/23 15:08:13;;;;;;;4.77;3.40;;;6.10;99.90;;;;;;5036150;28;20164;-64
2022/01/23 15:10:44;;;;;;;12.33;6.93;;;6.10;99.90;;;;;;5041326;28;20177;-63
2022/01/23 15:13:11;;;;;;;6.67;4.20;;;6.10;99.90;;;;;;5038025;28;20562;-63
2022/01/23 15:15:41;;;;;;;8.00;4.70;;;6.10;99.90;;;;;;5039540;28;20191;-63
2022/01/23 15:18:08;;;;;;;7.10;4.03;;;6.10;99.90;;;;;;5033272;28;20190;-63
2022/01/23 15:20:37;;;;;;;5.47;2.93;;;6.20;99.90;;;;;;5040632;28;20263;-63
2022/01/23 15:23:04;;;;;;;6.53;4.60;;;6.20;99.90;;;;;;5034967;28;20235;-63
2022/01/23 15:25:33;;;;;;;8.50;4.70;;;6.10;99.90;;;;;;5035266;28;20211;-63
2022/01/23 15:28:00;;;;;;;7.13;4.47;;;6.20;99.90;;;;;;5035561;28;20207;-63
2022/01/23 15:30:26;;;;;;;6.17;4.47;;;6.10;99.90;;;;;;5036023;28;20218;-64
2022/01/23 15:32:54;;;;;;;5.67;4.20;;;6.10;99.90;;;;;;5054810;28;20255;-64
2022/01/23 15:35:22;;;;;;;9.27;4.70;;;6.10;99.90;;;;;;5055543;28;20187;-63
2022/01/23 15:37:50;;;;;;;7.53;4.87;;;6.10;99.90;;;;;;5055255;28;20197;-63
2022/01/23 15:40:19;;;;;;;10.03;3.73;;;6.10;99.90;;;;;;5054930;28;20190;-64
2022/01/23 15:42:46;;;;;;;8.10;4.47;;;6.10;99.90;;;;;;5032450;28;20208;-64
2022/01/23 15:45:13;;;;;;;6.70;4.33;;;6.20;99.90;;;;;;5037258;28;20228;-63
2022/01/23 15:47:40;;;;;;;6.03;4.23;;;6.10;99.90;;;;;;5038435;28;20177;-63
2022/01/23 15:50:14;;;;;;;6.87;4.63;;;6.00;99.90;;;;;;5042784;28;20221;-64
2022/01/23 15:52:41;;;;;;;6.07;4.23;;;6.10;99.90;;;;;;5040989;28;20631;-64
2022/01/23 15:55:10;;;;;;;11.67;4.60;;;6.00;99.90;;;;;;5036605;28;20199;-65
2022/01/23 15:57:40;;;;;;;8.80;4.80;;;6.00;99.90;;;;;;5039466;28;20195;-64
2022/01/23 16:00:08;;;;;;;5.50;4.07;;;6.00;99.90;;;;;;5037611;28;20184;-63
2022/01/23 16:02:34;;;;;;;8.17;4.30;;;6.00;99.90;;;;;;5041289;28;20204;-65
2022/01/23 16:05:02;;;;;;;7.37;4.10;;;6.00;99.90;;;;;;5041778;28;20192;-63
2022/01/23 16:07:28;;;;;;;6.87;4.30;;;6.00;99.90;;;;;;5041407;28;20626;-68
2022/01/23 16:09:54;;;;;;;7.80;4.83;;;6.00;99.90;;;;;;5041700;28;20205;-63
2022/01/23 16:12:20;;;;;;;6.87;4.27;;;6.00;99.90;;;;;;5043779;28;20210;-63
2022/01/23 16:14:45;;;;;;;5.63;4.37;;;5.90;99.90;;;;;;5042687;28;20621;-64
2022/01/23 16:17:11;;;;;;;8.03;4.33;;;5.90;99.90;;;;;;5035556;28;20245;-63
2022/01/23 16:19:37;;;;;;;6.90;4.43;;;5.90;99.90;;;;;;5037670;28;20624;-65
2022/01/23 16:22:06;;;;;;;10.37;5.40;;;5.90;99.90;;;;;;5037065;28;20215;-63
2022/01/23 16:24:32;;;;;;;8.63;4.37;;;5.90;99.90;;;;;;5040627;28;20181;-63
2022/01/23 16:26:57;;;;;;;5.63;4.13;;;5.90;99.90;;;;;;5039359;28;20412;-64
2022/01/23 16:29:28;;;;;;;6.50;4.10;;;5.90;99.90;;;;;;5039062;28;20693;-66
2022/01/23 16:31:57;;;;;;;7.37;4.17;;;5.80;99.90;;;;;;5039128;28;20173;-64
2022/01/23 16:34:23;;;;;;;6.23;4.13;;;5.80;99.90;;;;;;5039021;28;20185;-64
2022/01/23 16:36:49;;;;;;;6.77;3.80;;;5.80;99.90;;;;;;5041762;28;20239;-64
2022/01/23 16:39:18;;;;;;;7.03;4.40;;;5.80;99.90;;;;;;5039371;28;20619;-64
2022/01/23 16:41:44;;;;;;;7.30;4.47;;;5.80;99.90;;;;;;5033116;28;20586;-64
2022/01/23 16:44:12;;;;;;;9.57;4.50;;;5.80;99.90;;;;;;5039408;28;20195;-64
2022/01/23 16:46:41;;;;;;;7.17;4.43;;;5.80;99.90;;;;;;5038689;28;20228;-64
2022/01/23 16:49:11;;;;;;;9.93;4.70;;;5.90;99.90;;;;;;5040959;28;20172;-65